Northern Highway — 3EVE6 — position and weather

sailwx.info

Track history (hours):
 
Tides and Currents Weather Stations Pressure Air Temp Water Temp Dewpoint Dewpoint Depression Visibility Wind Speed Wind Dir Waves Ship Positions

Northern Highway

Last reported at 2017-Mar-23 00:33 UTC. Time now 2017-Mar-24 22:07 UTC.
Position S 33°15' E 152°03'.

Length 188 m; draft 7.6 m.

Type: Cargo ship. MMSI: 371608000.

Date/timePositionNaut miles runAvg speedWind from/ knotsBaromVisibWave heightAir tempDewpointWater temp
2017-Mar-23 00:33S 33°15' E 152°03'1515.0
2017-Mar-22 23:33S 33°02' E 152°12'1515.2
2017-Mar-22 22:33S 32°48' E 152°19'1515.1
2017-Mar-22 21:33S 32°36' E 152°30'1716.7
2017-Mar-22 20:31S 32°22' E 152°42'26417.4
2017-Mar-22 05:21S 28°03' E 153°45'1417.9
2017-Mar-22 04:34S 27°49' E 153°43'1918.6
2017-Mar-22 03:33S 27°31' E 153°41'1918.6
2017-Mar-22 02:33S 27°12' E 153°38'1717.3
2017-Mar-22 01:33S 26°56' E 153°31'1716.8
2017-Mar-22 00:33S 26°47' E 153°15'7 7.0
2017-Mar-21 23:33S 26°50' E 153°09'1616.0
2017-Mar-21 22:33S 27°04' E 153°18'1313.4
2017-Mar-21 21:33S 27°17' E 153°14'7 6.6
2017-Mar-21 20:31S 27°23' E 153°10'0 0.0
2017-Mar-21 19:31S 27°23' E 153°10'0 0.0
2017-Mar-21 18:31S 27°23' E 153°10'0 0.0
2017-Mar-21 17:31S 27°23' E 153°10'0 0.0
2017-Mar-21 16:31S 27°23' E 153°10'0 0.0
2017-Mar-21 15:31S 27°23' E 153°10'0 0.0
2017-Mar-21 14:28S 27°23' E 153°10'0 0.0
2017-Mar-21 13:25S 27°23' E 153°10'0 0.0
2017-Mar-21 12:31S 27°23' E 153°10'0 0.0
2017-Mar-21 11:31S 27°23' E 153°10'7 7.5
2017-Mar-21 10:34S 27°17' E 153°14'1413.9
2017-Mar-21 09:34S 27°03' E 153°18'1615.5
2017-Mar-21 08:33S 26°50' E 153°09'7 7.5
2017-Mar-21 07:34S 26°43' E 153°12'3 3.1
2017-Mar-21 06:33S 26°40' E 153°12'  
Track history (hours):
 
Tides and Currents Weather Stations Pressure Air Temp Water Temp Dewpoint Dewpoint Depression Visibility Wind Speed Wind Dir Waves Ship Positions

Northern Highway

Last reported at 2017-Mar-23 00:33 UTC. Time now 2017-Mar-24 22:07 UTC.
Position S 33°15' E 152°03'.

Length 188 m; draft 7.6 m.

Type: Cargo ship. MMSI: 371608000.

Date/timePositionNaut miles runAvg speedWind from/ knotsBaromVisibWave heightAir tempDewpointWater temp
2017-Mar-23 00:33S 33°15' E 152°03'1515.0
2017-Mar-22 23:33S 33°02' E 152°12'1515.2
2017-Mar-22 22:33S 32°48' E 152°19'1515.1
2017-Mar-22 21:33S 32°36' E 152°30'1716.7
2017-Mar-22 20:31S 32°22' E 152°42'26417.4
2017-Mar-22 05:21S 28°03' E 153°45'1417.9
2017-Mar-22 04:34S 27°49' E 153°43'1918.6
2017-Mar-22 03:33S 27°31' E 153°41'1918.6
2017-Mar-22 02:33S 27°12' E 153°38'1717.3
2017-Mar-22 01:33S 26°56' E 153°31'1716.8
2017-Mar-22 00:33S 26°47' E 153°15'7 7.0
2017-Mar-21 23:33S 26°50' E 153°09'1616.0
2017-Mar-21 22:33S 27°04' E 153°18'1313.4
2017-Mar-21 21:33S 27°17' E 153°14'7 6.6
2017-Mar-21 20:31S 27°23' E 153°10'0 0.0
2017-Mar-21 19:31S 27°23' E 153°10'0 0.0
2017-Mar-21 18:31S 27°23' E 153°10'0 0.0
2017-Mar-21 17:31S 27°23' E 153°10'0 0.0
2017-Mar-21 16:31S 27°23' E 153°10'0 0.0
2017-Mar-21 15:31S 27°23' E 153°10'0 0.0
2017-Mar-21 14:28S 27°23' E 153°10'0 0.0
2017-Mar-21 13:25S 27°23' E 153°10'0 0.0
2017-Mar-21 12:31S 27°23' E 153°10'0 0.0
2017-Mar-21 11:31S 27°23' E 153°10'7 7.5
2017-Mar-21 10:34S 27°17' E 153°14'1413.9
2017-Mar-21 09:34S 27°03' E 153°18'1615.5
2017-Mar-21 08:33S 26°50' E 153°09'7 7.5
2017-Mar-21 07:34S 26°43' E 153°12'3 3.1
2017-Mar-21 06:33S 26°40' E 153°12'  

Dump ship's entire track history